Terminal Aerodrome Forecast
Issued by NWS Atlanta, GA

Home | Current Version | Previous Version | Text Only | Print | Product List | Glossary On
Versions: 1 2 3 4 5 6 7 8 9 10 11 12 13 14 15 16 17 18 19 20 21 22 23 24 25 26 27 28 29 30 31 32 33 34 35 36 37 38 39 40
000
FTUS42 KFFC 211741
TAFAHN
TAF
KAHN 211741Z 2118/2218 08005KT P6SM OVC008
     FM212100 08006KT 6SM BR BKN012 OVC025
     FM220500 09006KT 5SM -DZ BR OVC005
     FM220900 09006KT 2SM -RADZ BR OVC003
     FM221600 09006KT 5SM -DZ BR OVC007=

USA.gov is the U.S. government's official web portal to all federal, state and local government web resources and services.